createdAt,value
2022-11-04T00:01:47.174Z,14.00
2022-11-04T00:04:15.914Z,18.30
2022-11-04T00:06:43.003Z,16.23
2022-11-04T00:09:13.488Z,12.25
2022-11-04T00:11:58.826Z,19.55
2022-11-04T00:14:26.072Z,12.02
2022-11-04T00:17:11.544Z,13.32
2022-11-04T00:19:57.110Z,14.85
2022-11-04T00:22:43.044Z,13.32
2022-11-04T00:25:29.173Z,13.65
2022-11-04T00:28:25.506Z,13.68
2022-11-04T00:30:57.674Z,15.95
2022-11-04T00:33:27.783Z,15.68
2022-11-04T00:35:57.470Z,14.30
2022-11-04T00:38:25.813Z,15.65
2022-11-04T00:40:52.946Z,12.55
2022-11-04T00:43:19.846Z,16.45
2022-11-04T00:45:46.624Z,13.50
2022-11-04T00:48:14.086Z,13.85
2022-11-04T00:50:41.151Z,14.52
2022-11-04T00:53:08.238Z,15.52
2022-11-04T00:55:35.405Z,14.65
2022-11-04T00:58:02.411Z,15.00
2022-11-04T01:00:30.095Z,14.20
2022-11-04T01:02:58.197Z,13.80
2022-11-04T01:05:25.048Z,12.25
2022-11-04T01:07:51.832Z,8.98
2022-11-04T01:10:19.030Z,9.25
2022-11-04T01:12:45.769Z,10.35
2022-11-04T01:15:12.560Z,12.18
2022-11-04T01:17:39.596Z,10.32
2022-11-04T01:20:07.275Z,11.45
2022-11-04T01:22:34.039Z,9.85
2022-11-04T01:25:01.385Z,14.38
2022-11-04T01:27:28.466Z,12.70
2022-11-04T01:29:55.638Z,10.15
2022-11-04T01:32:22.404Z,9.07
2022-11-04T01:34:49.520Z,7.90
2022-11-04T01:37:16.794Z,6.97
2022-11-04T01:39:44.177Z,7.82
2022-11-04T01:42:14.287Z,8.80
2022-11-04T01:44:56.276Z,6.78
2022-11-04T01:47:45.706Z,6.63
2022-11-04T01:50:19.613Z,6.32
2022-11-04T01:52:52.744Z,6.38
2022-11-04T01:55:22.766Z,6.22
2022-11-04T01:57:50.669Z,4.30
2022-11-04T02:00:18.735Z,6.35
2022-11-04T02:03:25.990Z,7.22
2022-11-04T02:05:53.121Z,8.88
2022-11-04T02:08:20.972Z,7.50
2022-11-04T02:10:54.150Z,7.30
2022-11-04T02:13:21.091Z,4.90
2022-11-04T02:16:26.022Z,3.90
2022-11-04T02:19:09.296Z,3.50
2022-11-04T02:22:09.916Z,6.80
2022-11-04T02:24:48.525Z,3.90
2022-11-04T02:27:31.436Z,3.72
2022-11-04T02:30:17.072Z,4.45
2022-11-04T02:33:09.652Z,3.85
2022-11-04T02:35:48.096Z,5.47
2022-11-04T02:38:34.626Z,4.15
2022-11-04T02:41:10.719Z,4.13
2022-11-04T02:44:13.570Z,6.07
2022-11-04T02:46:53.836Z,6.13
2022-11-04T02:49:34.234Z,5.07
2022-11-04T02:52:24.831Z,5.13
2022-11-04T02:54:57.325Z,4.55
2022-11-04T02:57:30.901Z,5.07
2022-11-04T03:00:06.085Z,3.72
2022-11-04T03:02:42.736Z,4.50
2022-11-04T03:05:14.814Z,3.25
2022-11-04T03:07:43.003Z,3.30
2022-11-04T03:10:18.071Z,3.90
2022-11-04T03:13:21.704Z,4.47
2022-11-04T03:16:14.082Z,2.25
2022-11-04T03:18:46.798Z,3.22
2022-11-04T03:21:14.588Z,1.73
2022-11-04T03:23:41.559Z,2.78
2022-11-04T03:26:42.283Z,2.70
2022-11-04T03:29:39.904Z,3.63
2022-11-04T03:32:26.725Z,2.80
2022-11-04T03:34:54.356Z,2.67
2022-11-04T03:37:22.372Z,2.90
2022-11-04T03:39:50.227Z,1.98
2022-11-04T03:42:22.709Z,2.42
2022-11-04T03:44:52.779Z,2.53
2022-11-04T03:47:22.308Z,2.47
2022-11-04T03:49:50.740Z,3.95
2022-11-04T03:52:18.624Z,1.52
2022-11-04T03:54:48.171Z,2.67
2022-11-04T03:57:56.641Z,2.38
2022-11-04T04:00:24.296Z,2.03
2022-11-04T04:03:15.160Z,2.55
2022-11-04T04:05:54.302Z,3.30
2022-11-04T04:08:41.733Z,2.55
2022-11-04T04:11:20.764Z,3.03
2022-11-04T04:13:57.319Z,1.67
2022-11-04T04:16:57.489Z,4.32
2022-11-04T04:19:26.229Z,1.70
2022-11-04T04:21:59.455Z,1.50
2022-11-04T04:24:49.762Z,3.03
2022-11-04T04:27:32.134Z,1.75
2022-11-04T04:30:08.142Z,2.60
2022-11-04T04:32:39.694Z,1.25
2022-11-04T04:35:27.038Z,1.92
2022-11-04T04:38:18.290Z,1.38
2022-11-04T04:41:19.580Z,0.90
2022-11-04T04:44:06.571Z,2.75
2022-11-04T04:46:36.390Z,1.20
2022-11-04T04:49:08.267Z,1.25
2022-11-04T04:51:40.158Z,2.85
2022-11-04T04:54:08.010Z,3.25
2022-11-04T04:56:36.371Z,2.30
2022-11-04T04:59:04.562Z,1.10
2022-11-04T05:01:31.585Z,1.20
2022-11-04T05:03:59.096Z,2.80
2022-11-04T05:06:27.865Z,2.42
2022-11-04T05:08:56.616Z,2.58
2022-11-04T05:11:24.544Z,2.25
2022-11-04T05:13:54.698Z,1.60
2022-11-04T05:16:22.247Z,1.85
2022-11-04T05:18:52.641Z,0.70
2022-11-04T05:21:19.703Z,1.48
2022-11-04T05:23:47.311Z,1.45
2022-11-04T05:26:16.670Z,1.45
2022-11-04T05:28:43.762Z,1.52
2022-11-04T05:31:11.031Z,1.90
2022-11-04T05:33:38.705Z,2.35
2022-11-04T05:36:09.722Z,1.75
2022-11-04T05:38:38.216Z,2.35
2022-11-04T05:41:07.151Z,1.35
2022-11-04T05:43:36.523Z,2.55
2022-11-04T05:46:04.388Z,3.30
2022-11-04T05:48:36.361Z,3.65
2022-11-04T05:51:08.169Z,1.98
2022-11-04T05:53:35.881Z,2.17
2022-11-04T05:56:03.492Z,2.25
2022-11-04T05:58:30.847Z,3.60
2022-11-04T06:01:29.054Z,1.33
2022-11-04T06:03:57.547Z,2.72
2022-11-04T06:06:25.967Z,2.25
2022-11-04T06:08:53.845Z,1.15
2022-11-04T06:11:24.260Z,1.73
2022-11-04T06:13:54.178Z,1.40
2022-11-04T06:16:22.653Z,1.30
2022-11-04T06:18:51.882Z,1.10
2022-11-04T06:21:26.598Z,2.50
2022-11-04T06:26:27.725Z,1.30
2022-11-04T06:28:55.297Z,1.77
2022-11-04T06:31:23.399Z,2.03
2022-11-04T06:33:50.764Z,3.47
2022-11-04T06:36:18.126Z,2.38
2022-11-04T06:38:45.907Z,4.85
2022-11-04T06:41:16.415Z,2.10
2022-11-04T06:43:45.178Z,1.88
2022-11-04T06:46:29.937Z,3.63
2022-11-04T06:51:26.023Z,4.95
2022-11-04T06:53:52.986Z,2.70
2022-11-04T06:56:21.576Z,2.50
2022-11-04T06:58:54.339Z,4.20
2022-11-04T07:01:24.604Z,3.10
2022-11-04T07:03:54.948Z,4.38
2022-11-04T07:06:24.468Z,3.90
2022-11-04T07:08:56.116Z,4.57
2022-11-04T07:11:26.386Z,5.55
2022-11-04T07:13:57.734Z,5.05
2022-11-04T07:16:27.581Z,4.72
2022-11-04T07:18:58.341Z,5.00
2022-11-04T07:21:28.553Z,3.00
2022-11-04T07:23:57.669Z,2.33
2022-11-04T07:26:25.830Z,1.90
2022-11-04T07:28:53.564Z,2.13
2022-11-04T07:31:23.005Z,3.95
2022-11-04T07:33:52.396Z,5.70
2022-11-04T07:36:19.890Z,4.90
2022-11-04T07:38:47.836Z,3.40
2022-11-04T07:41:16.208Z,3.15
2022-11-04T07:43:44.106Z,2.95
2022-11-04T07:46:13.092Z,2.05
2022-11-04T07:48:40.746Z,5.32
2022-11-04T07:51:12.108Z,2.80
2022-11-04T07:53:40.586Z,3.92
2022-11-04T07:56:13.938Z,8.32
2022-11-04T07:58:42.390Z,16.95
2022-11-04T08:01:13.847Z,12.57
2022-11-04T08:03:46.045Z,6.60
2022-11-04T08:06:15.547Z,11.02
2022-11-04T08:08:44.147Z,8.77
2022-11-04T08:11:25.414Z,5.57
2022-11-04T08:13:52.811Z,5.50
2022-11-04T08:16:22.276Z,7.45
2022-11-04T08:18:51.768Z,4.53
2022-11-04T08:21:20.788Z,4.10
2022-11-04T08:23:51.946Z,6.72
2022-11-04T08:26:21.577Z,3.88
2022-11-04T08:28:59.866Z,4.85
2022-11-04T08:31:29.873Z,4.90
2022-11-04T08:33:58.887Z,6.78
2022-11-04T08:36:31.761Z,4.05
2022-11-04T08:38:59.617Z,5.35
2022-11-04T08:41:29.449Z,5.60
2022-11-04T08:43:57.809Z,9.65
2022-11-04T08:46:26.187Z,9.13
2022-11-04T08:48:56.092Z,9.80
2022-11-04T08:51:27.139Z,6.47
2022-11-04T08:53:55.663Z,8.18
2022-11-04T08:56:26.995Z,3.95
2022-11-04T08:58:54.713Z,2.83
2022-11-04T09:01:22.804Z,4.20
2022-11-04T09:03:51.114Z,6.07
2022-11-04T09:06:27.968Z,1.95
2022-11-04T09:09:02.932Z,1.77
2022-11-04T09:11:34.049Z,3.20
2022-11-04T09:14:03.036Z,3.58
2022-11-04T09:16:31.571Z,2.65
2022-11-04T09:18:59.073Z,2.13
2022-11-04T09:21:27.160Z,3.05
2022-11-04T09:23:55.029Z,3.83
2022-11-04T09:26:24.093Z,3.25
2022-11-04T09:28:58.950Z,3.15
2022-11-04T09:31:28.568Z,2.80
2022-11-04T09:33:56.419Z,4.00
2022-11-04T09:36:24.902Z,6.15
2022-11-04T09:38:52.219Z,4.30
2022-11-04T09:41:31.527Z,3.55
2022-11-04T09:44:24.559Z,2.15
2022-11-04T09:46:53.626Z,4.63
2022-11-04T09:49:21.944Z,4.60
2022-11-04T09:51:55.438Z,2.42
2022-11-04T09:54:47.012Z,2.47
2022-11-04T09:57:18.415Z,3.13
2022-11-04T09:59:55.649Z,6.57
2022-11-04T10:03:05.125Z,5.72
2022-11-04T10:05:40.868Z,4.07
2022-11-04T10:08:40.797Z,7.32
2022-11-04T10:11:07.825Z,3.65
2022-11-04T10:14:21.615Z,4.60
2022-11-04T10:17:15.206Z,5.75
2022-11-04T10:19:57.490Z,1.98
2022-11-04T10:22:38.056Z,4.43
2022-11-04T10:25:15.949Z,6.43
2022-11-04T10:27:46.400Z,6.07
2022-11-04T10:30:24.387Z,2.78
2022-11-04T10:33:34.368Z,5.00
2022-11-04T10:36:05.258Z,2.75
2022-11-04T10:38:39.298Z,3.63
2022-11-04T10:41:37.606Z,7.63
2022-11-04T10:44:12.383Z,3.40
2022-11-04T10:47:15.871Z,4.38
2022-11-04T10:50:31.878Z,3.17
2022-11-04T10:53:20.410Z,9.48
2022-11-04T10:56:12.709Z,7.55
2022-11-04T10:58:46.151Z,7.13
2022-11-04T11:01:34.875Z,19.10
2022-11-04T11:04:08.405Z,13.35
2022-11-04T11:06:36.838Z,5.07
2022-11-04T11:09:15.915Z,4.57
2022-11-04T11:11:48.670Z,2.22
2022-11-04T11:14:37.958Z,2.88
2022-11-04T11:17:43.463Z,3.40
2022-11-04T11:20:21.853Z,6.03
2022-11-04T11:22:52.388Z,4.13
2022-11-04T11:25:34.198Z,4.00
2022-11-04T11:28:10.862Z,5.30
2022-11-04T11:31:08.800Z,5.07
2022-11-04T11:33:38.826Z,5.80
2022-11-04T11:36:15.495Z,3.85
2022-11-04T11:39:23.706Z,4.50
2022-11-04T11:42:21.134Z,5.97
2022-11-04T11:44:59.721Z,4.65
2022-11-04T11:47:42.214Z,6.72
2022-11-04T11:50:20.963Z,4.45
2022-11-04T11:52:49.435Z,5.55
2022-11-04T11:55:27.466Z,2.92
2022-11-04T12:01:47.269Z,2.60
2022-11-04T12:10:51.321Z,1.95
2022-11-04T12:13:30.075Z,6.70
2022-11-04T12:16:24.344Z,5.78
2022-11-04T12:19:10.270Z,5.45
2022-11-04T12:21:50.954Z,4.70
2022-11-04T12:24:28.364Z,4.53
2022-11-04T12:27:08.176Z,4.68
2022-11-04T12:30:00.810Z,7.20
2022-11-04T12:32:39.941Z,4.07
2022-11-04T12:36:05.347Z,2.67
2022-11-04T12:38:57.093Z,5.75
2022-11-04T12:42:19.685Z,5.38
2022-11-04T12:45:21.500Z,5.70
2022-11-04T12:47:50.773Z,3.25
2022-11-04T12:50:28.793Z,3.45
2022-11-04T12:53:46.811Z,7.38
2022-11-04T12:56:21.163Z,4.60
2022-11-04T12:59:10.247Z,4.95
2022-11-04T13:01:48.489Z,5.25
2022-11-04T13:04:38.612Z,5.22
2022-11-04T13:07:12.596Z,4.95
2022-11-04T13:09:54.489Z,3.45
2022-11-04T13:12:27.831Z,4.38
2022-11-04T13:15:00.789Z,6.37
2022-11-04T13:17:31.816Z,4.97
2022-11-04T13:20:07.345Z,4.30
2022-11-04T13:22:39.640Z,4.57
2022-11-04T13:25:15.982Z,8.70
2022-11-04T13:27:45.942Z,7.57
2022-11-04T13:30:23.475Z,4.88
2022-11-04T13:33:28.960Z,7.68
2022-11-04T13:36:07.818Z,8.27
2022-11-04T13:38:45.990Z,4.20
2022-11-04T13:41:32.471Z,3.70
2022-11-04T13:44:02.823Z,5.10
2022-11-04T13:46:33.000Z,6.40
2022-11-04T13:49:31.306Z,7.95
2022-11-04T13:52:13.838Z,7.43
2022-11-04T13:54:43.292Z,6.40
2022-11-04T13:57:17.139Z,4.35
2022-11-04T14:00:16.500Z,3.42
2022-11-04T14:02:45.484Z,5.95
2022-11-04T14:05:45.961Z,7.60
2022-11-04T14:08:17.203Z,4.10
2022-11-04T14:11:07.871Z,5.75
2022-11-04T14:13:46.352Z,4.35
2022-11-04T14:16:40.623Z,2.92
2022-11-04T14:19:47.841Z,9.07
2022-11-04T14:22:16.936Z,5.95
2022-11-04T14:24:45.214Z,2.20
2022-11-04T14:27:25.402Z,2.70
2022-11-04T14:29:53.650Z,2.22
2022-11-04T14:32:28.681Z,5.30
2022-11-04T14:35:05.595Z,4.90
2022-11-04T14:37:35.092Z,6.55
2022-11-04T14:40:05.979Z,5.63
2022-11-04T14:42:58.410Z,2.33
2022-11-04T14:45:29.302Z,6.63
2022-11-04T14:48:03.978Z,5.03
2022-11-04T14:50:32.624Z,32.45
2022-11-04T14:53:03.111Z,10.90
2022-11-04T14:55:32.164Z,9.85
2022-11-04T14:58:22.872Z,4.22
2022-11-04T15:00:50.507Z,5.95
2022-11-04T15:06:34.911Z,3.70
2022-11-04T15:09:23.784Z,7.43
2022-11-04T15:12:12.205Z,24.60
2022-11-04T15:14:40.495Z,7.18
2022-11-04T15:17:18.208Z,28.27
2022-11-04T15:19:49.761Z,9.38
2022-11-04T15:22:18.495Z,7.07
2022-11-04T15:24:46.140Z,5.68
2022-11-04T15:27:20.476Z,8.73
2022-11-04T15:30:07.347Z,13.52
2022-11-04T15:32:34.807Z,8.63
2022-11-04T15:35:04.216Z,9.70
2022-11-04T15:37:32.560Z,3.88
2022-11-04T15:40:00.360Z,6.35
2022-11-04T15:42:45.765Z,4.25
2022-11-04T15:45:47.970Z,3.25
2022-11-04T15:48:29.334Z,4.88
2022-11-04T15:51:35.909Z,3.15
2022-11-04T15:54:05.813Z,3.78
2022-11-04T15:56:50.382Z,3.47
2022-11-04T15:59:21.658Z,6.15
2022-11-04T16:01:50.939Z,5.40
2022-11-04T16:04:21.747Z,6.72
2022-11-04T16:07:21.173Z,3.05
2022-11-04T16:09:56.223Z,4.65
2022-11-04T16:12:36.566Z,4.32
2022-11-04T16:15:04.652Z,2.70
2022-11-04T16:17:32.647Z,2.78
2022-11-04T16:20:02.724Z,5.78
2022-11-04T16:22:37.875Z,6.07
2022-11-04T16:27:35.384Z,4.85
2022-11-04T16:30:24.652Z,4.10
2022-11-04T16:32:55.029Z,3.92
2022-11-04T16:35:27.467Z,4.70
2022-11-04T16:37:59.245Z,3.72
2022-11-04T16:40:27.226Z,11.40
2022-11-04T16:42:54.695Z,12.63
2022-11-04T16:45:31.501Z,8.70
2022-11-04T16:48:01.406Z,6.80
2022-11-04T16:50:29.780Z,9.98
2022-11-04T16:52:57.697Z,6.05
2022-11-04T16:55:26.045Z,6.43
2022-11-04T16:58:00.034Z,6.45
2022-11-04T17:00:30.263Z,5.28
2022-11-04T17:02:58.041Z,7.25
2022-11-04T17:05:25.786Z,5.72
2022-11-04T17:07:57.516Z,8.15
2022-11-04T17:10:29.286Z,7.95
2022-11-04T17:12:56.685Z,11.25
2022-11-04T17:15:24.549Z,9.15
2022-11-04T17:17:51.802Z,6.68
2022-11-04T17:20:21.249Z,7.72
2022-11-04T17:22:49.374Z,6.82
2022-11-04T17:25:23.501Z,7.30
2022-11-04T17:27:51.758Z,13.90
2022-11-04T17:30:19.731Z,16.00
2022-11-04T17:32:49.108Z,6.80
2022-11-04T17:35:17.786Z,8.88
2022-11-04T17:37:46.305Z,7.90
2022-11-04T17:40:18.727Z,15.75
2022-11-04T17:43:10.419Z,39.33
2022-11-04T17:45:46.244Z,70.50
2022-11-04T17:48:15.821Z,63.13
2022-11-04T17:50:43.819Z,58.45
2022-11-04T17:53:12.504Z,50.25
2022-11-04T17:55:41.471Z,42.90
2022-11-04T17:58:09.515Z,38.60
2022-11-04T18:00:37.969Z,51.70
2022-11-04T18:03:07.251Z,47.20
2022-11-04T18:05:35.899Z,46.75
2022-11-04T18:08:03.673Z,39.10
2022-11-04T18:10:31.123Z,40.13
2022-11-04T18:13:00.124Z,38.45
2022-11-04T18:15:27.744Z,37.53
2022-11-04T18:17:56.392Z,30.92
2022-11-04T18:20:23.991Z,14.48
2022-11-04T18:22:52.439Z,12.40
2022-11-04T18:25:19.650Z,6.10
2022-11-04T18:27:49.366Z,11.20
2022-11-04T18:30:16.700Z,11.10
2022-11-04T18:32:45.867Z,8.10
2022-11-04T18:35:13.645Z,11.27
2022-11-04T18:37:47.082Z,13.82
2022-11-04T18:40:16.817Z,11.57
2022-11-04T18:42:45.860Z,13.70
2022-11-04T18:45:15.014Z,16.25
2022-11-04T18:47:42.604Z,18.38
2022-11-04T18:50:11.380Z,12.95
2022-11-04T18:52:51.890Z,13.23
2022-11-04T18:55:20.249Z,16.10
2022-11-04T18:57:48.449Z,20.88
2022-11-04T19:00:17.427Z,18.20
2022-11-04T19:02:46.418Z,13.52
2022-11-04T19:05:16.339Z,10.45
2022-11-04T19:07:46.300Z,11.00
2022-11-04T19:10:17.146Z,7.93
2022-11-04T19:13:07.681Z,7.93
2022-11-04T19:15:37.168Z,5.80
2022-11-04T19:18:06.221Z,6.45
2022-11-04T19:20:34.420Z,5.25
2022-11-04T19:23:07.438Z,6.95
2022-11-04T19:25:41.953Z,5.07
2022-11-04T19:28:34.509Z,4.53
2022-11-04T19:31:02.835Z,8.05
2022-11-04T19:33:43.130Z,3.47
2022-11-04T19:36:16.103Z,6.90
2022-11-04T19:38:44.344Z,8.32
2022-11-04T19:41:34.390Z,10.00
2022-11-04T19:44:08.457Z,10.52
2022-11-04T19:46:37.077Z,20.10
2022-11-04T19:49:07.550Z,14.88
2022-11-04T19:51:36.200Z,12.23
2022-11-04T19:54:04.933Z,13.40
2022-11-04T19:56:35.098Z,12.80
2022-11-04T19:59:06.393Z,9.52
2022-11-04T20:01:35.792Z,12.35
2022-11-04T20:04:04.912Z,12.65
2022-11-04T20:06:36.398Z,14.70
2022-11-04T20:09:07.072Z,8.40
2022-11-04T20:11:35.561Z,9.93
2022-11-04T20:14:08.014Z,7.60
2022-11-04T20:16:39.827Z,6.57
2022-11-04T20:19:08.190Z,6.85
2022-11-04T20:21:37.891Z,7.13
2022-11-04T20:24:08.908Z,6.50
2022-11-04T20:26:54.188Z,7.20
2022-11-04T20:29:24.958Z,7.28
2022-11-04T20:31:53.117Z,5.60
2022-11-04T20:34:20.656Z,8.50
2022-11-04T20:36:49.889Z,9.25
2022-11-04T20:39:20.675Z,8.98
2022-11-04T20:41:48.967Z,7.35
2022-11-04T20:44:20.381Z,8.68
2022-11-04T20:46:55.767Z,8.35
2022-11-04T20:49:24.087Z,6.15
2022-11-04T20:51:55.449Z,5.72
2022-11-04T20:54:23.746Z,7.60
2022-11-04T20:56:53.103Z,8.77
2022-11-04T20:59:22.128Z,7.00
2022-11-04T21:02:11.584Z,8.40
2022-11-04T21:04:40.369Z,7.82
2022-11-04T21:07:10.492Z,9.60
2022-11-04T21:09:39.423Z,7.32
2022-11-04T21:12:09.299Z,8.40
2022-11-04T21:14:41.345Z,8.85
2022-11-04T21:17:11.048Z,9.98
2022-11-04T21:19:44.797Z,11.20
2022-11-04T21:22:14.481Z,11.95
2022-11-04T21:24:45.280Z,8.63
2022-11-04T21:27:14.835Z,11.05
2022-11-04T21:29:48.237Z,15.07
2022-11-04T21:32:20.241Z,13.73
2022-11-04T21:34:52.554Z,12.35
2022-11-04T21:37:20.799Z,14.23
2022-11-04T21:39:47.857Z,14.85
2022-11-04T21:42:18.809Z,11.80
2022-11-04T21:44:51.883Z,13.40
2022-11-04T21:47:23.295Z,11.52
2022-11-04T21:49:53.218Z,10.57
2022-11-04T21:52:22.795Z,10.65
2022-11-04T21:54:52.448Z,11.02
2022-11-04T21:57:20.611Z,11.82
2022-11-04T21:59:52.605Z,12.90
2022-11-04T22:02:23.600Z,11.48
2022-11-04T22:04:56.484Z,9.15
2022-11-04T22:07:45.410Z,10.97
2022-11-04T22:10:14.489Z,11.43
2022-11-04T22:12:50.075Z,13.23
2022-11-04T22:15:46.411Z,11.10
2022-11-04T22:18:22.535Z,12.48
2022-11-04T22:20:51.757Z,9.77
2022-11-04T22:23:20.380Z,9.10
2022-11-04T22:25:50.245Z,8.57
2022-11-04T22:28:24.563Z,9.40
2022-11-04T22:33:21.743Z,9.60
2022-11-04T22:35:53.042Z,11.32
2022-11-04T22:38:25.294Z,10.38
2022-11-04T22:40:56.947Z,11.40
2022-11-04T22:43:26.865Z,10.18
2022-11-04T22:45:55.854Z,9.88
2022-11-04T22:48:26.449Z,10.32
2022-11-04T22:50:58.265Z,11.35
2022-11-04T22:53:29.560Z,15.68
2022-11-04T22:56:00.765Z,9.85
2022-11-04T22:58:28.393Z,9.75
2022-11-04T23:00:59.102Z,13.45
2022-11-04T23:03:29.722Z,10.95
2022-11-04T23:05:59.362Z,9.63
2022-11-04T23:08:32.094Z,12.52
2022-11-04T23:11:22.594Z,13.48
2022-11-04T23:14:20.057Z,17.80
2022-11-04T23:17:10.394Z,24.15
2022-11-04T23:19:39.739Z,20.50
2022-11-04T23:22:27.634Z,20.23
2022-11-04T23:25:10.162Z,19.77
2022-11-04T23:28:04.498Z,17.83
2022-11-04T23:30:39.814Z,16.88
2022-11-04T23:33:25.770Z,18.42
2022-11-04T23:36:17.174Z,14.90
2022-11-04T23:38:50.160Z,15.95
2022-11-04T23:41:38.745Z,12.35
2022-11-04T23:44:27.457Z,14.85
2022-11-04T23:47:14.672Z,14.52
2022-11-04T23:50:02.737Z,14.25
2022-11-04T23:52:49.629Z,13.10
2022-11-04T23:55:35.521Z,12.13
2022-11-04T23:58:21.625Z,14.40
